Time;durP1;ratioP1;P1;durP2;ratioP2;P2;SDS_P1;SDS_P2;PMS_P1;PMS_P2;Temp;Humidity;BMP_temperature;BMP_pressure;BME280_temperature;BME280_humidity;BME280_pressure;Samples;Min_cycle;Max_cycle;Signal;HPM_P1;HPM_P2
2023/07/22 00:00:30;;;;;;;10.13;5.00;;;;;;;16.64;56.69;99570.19;4992588;28;20054;-81
2023/07/22 00:02:57;;;;;;;9.02;5.05;;;;;;;16.65;56.48;99566.59;4992887;28;20060;-80
2023/07/22 00:05:25;;;;;;;9.93;5.38;;;;;;;16.67;56.16;99574.41;4992540;28;20146;-80
2023/07/22 00:07:51;;;;;;;10.63;5.50;;;;;;;16.68;56.20;99576.13;4993509;28;20050;-80
2023/07/22 00:10:18;;;;;;;12.00;5.55;;;;;;;16.68;56.38;99571.63;4992314;28;20491;-80
2023/07/22 00:12:44;;;;;;;10.30;6.40;;;;;;;16.70;56.70;99568.84;4993747;28;20052;-80
2023/07/22 00:15:14;;;;;;;9.55;5.72;;;;;;;16.71;56.47;99575.81;4993297;28;20592;-80
2023/07/22 00:17:41;;;;;;;10.95;6.07;;;;;;;16.71;56.11;99567.84;4993515;28;20412;-80
2023/07/22 00:20:11;;;;;;;8.75;5.72;;;;;;;16.71;56.40;99567.03;4992463;28;20050;-80
2023/07/22 00:22:39;;;;;;;7.82;5.85;;;;;;;16.70;56.16;99568.00;4992052;28;20157;-80
2023/07/22 00:25:10;;;;;;;9.77;5.50;;;;;;;16.70;56.10;99570.66;4993024;28;20057;-80
2023/07/22 00:27:40;;;;;;;11.02;6.25;;;;;;;16.64;56.49;99559.56;4974027;28;20503;-80
2023/07/22 00:30:07;;;;;;;9.38;5.32;;;;;;;16.65;56.29;99565.72;4973745;28;20509;-80
2023/07/22 00:32:36;;;;;;;9.02;5.43;;;;;;;16.61;56.07;99561.66;4982650;28;20050;-80
2023/07/22 00:35:05;;;;;;;8.00;5.75;;;;;;;16.58;56.36;99569.88;4993279;28;20058;-80
2023/07/22 00:37:32;;;;;;;9.35;5.97;;;;;;;16.56;56.05;99561.22;4992998;28;20051;-80
2023/07/22 00:39:59;;;;;;;9.35;5.97;;;;;;;16.52;56.24;99561.47;4993138;28;20440;-80
2023/07/22 00:42:25;;;;;;;10.00;6.15;;;;;;;16.49;56.13;99563.56;4992697;28;20042;-80
2023/07/22 00:44:52;;;;;;;8.90;5.60;;;;;;;16.47;56.54;99555.72;4992899;28;20054;-80
2023/07/22 00:47:19;;;;;;;9.85;5.57;;;;;;;16.44;56.53;99560.44;4992849;28;20084;-80
2023/07/22 00:49:48;;;;;;;10.25;5.57;;;;;;;16.44;56.62;99563.13;4993111;28;20062;-80
2023/07/22 00:52:16;;;;;;;10.48;5.78;;;;;;;16.42;56.46;99552.63;4992620;28;20061;-80
2023/07/22 00:54:42;;;;;;;9.27;6.00;;;;;;;16.42;56.39;99556.09;4992775;28;20050;-80
2023/07/22 00:57:09;;;;;;;9.85;5.53;;;;;;;16.40;56.51;99552.75;4992897;28;20054;-80
2023/07/22 00:59:36;;;;;;;11.35;6.20;;;;;;;16.39;56.55;99547.56;4991722;28;20101;-80
2023/07/22 01:02:02;;;;;;;13.32;6.60;;;;;;;16.38;56.43;99548.53;4992851;28;20046;-80
2023/07/22 01:04:33;;;;;;;10.48;5.85;;;;;;;16.36;56.38;99547.81;4991158;28;20519;-80
2023/07/22 01:07:03;;;;;;;11.93;6.10;;;;;;;16.34;56.46;99545.28;4992288;28;20051;-80
2023/07/22 01:09:37;;;;;;;10.30;5.85;;;;;;;16.31;57.57;99539.38;4992454;28;20050;-80
2023/07/22 01:12:08;;;;;;;10.45;6.05;;;;;;;16.34;56.84;99547.09;4992335;28;20489;-80
2023/07/22 01:14:36;;;;;;;8.57;5.38;;;;;;;16.33;57.05;99540.13;4992356;28;20058;-80
2023/07/22 01:17:04;;;;;;;7.22;5.47;;;;;;;16.33;56.98;99545.44;4991002;28;20277;-80
2023/07/22 01:19:32;;;;;;;9.45;6.03;;;;;;;16.32;56.89;99544.56;4992317;28;20054;-80
2023/07/22 01:22:04;;;;;;;10.40;5.72;;;;;;;16.31;57.33;99547.34;4992541;28;20079;-80
2023/07/22 01:24:32;;;;;;;9.95;5.85;;;;;;;16.33;56.79;99545.44;4991163;28;20090;-80
2023/07/22 01:26:58;;;;;;;12.65;5.13;;;;;;;16.33;56.87;99545.44;4991853;28;20053;-80
2023/07/22 01:29:26;;;;;;;10.27;5.68;;;;;;;16.32;57.13;99546.38;4992156;28;20511;-80
2023/07/22 01:31:54;;;;;;;9.05;6.10;;;;;;;16.32;56.96;99539.25;4992115;28;20076;-80
2023/07/22 01:34:21;;;;;;;10.18;6.30;;;;;;;16.31;57.14;99542.03;4991985;28;20054;-80
2023/07/22 01:36:49;;;;;;;10.63;5.97;;;;;;;16.30;57.07;99541.22;4991950;28;20497;-80
2023/07/22 01:39:16;;;;;;;10.05;5.97;;;;;;;16.30;57.04;99540.38;4991923;28;20112;-80
2023/07/22 01:41:43;;;;;;;10.50;6.40;;;;;;;16.28;56.94;99538.69;4990768;28;20413;-80
2023/07/22 01:44:10;;;;;;;8.75;5.75;;;;;;;16.28;57.14;99538.69;4990373;28;20050;-80
2023/07/22 01:46:37;;;;;;;11.98;6.22;;;;;;;16.28;57.09;99537.84;4991132;28;20048;-80
2023/07/22 01:49:08;;;;;;;11.27;5.65;;;;;;;16.27;57.27;99544.13;4991394;28;20109;-80
2023/07/22 01:51:34;;;;;;;8.88;6.13;;;;;;;16.26;56.34;99540.63;4991934;28;20050;-80
2023/07/22 01:54:01;;;;;;;11.65;6.20;;;;;;;16.24;56.89;99544.38;4989302;28;20539;-79
2023/07/22 01:56:27;;;;;;;9.63;5.95;;;;;;;16.23;56.62;99548.00;4990292;28;20109;-80
2023/07/22 01:58:55;;;;;;;8.82;5.75;;;;;;;16.22;56.94;99543.69;4981341;28;20058;-80
2023/07/22 02:01:21;;;;;;;10.57;5.72;;;;;;;16.18;57.06;99545.72;4972487;28;20457;-80
2023/07/22 02:03:48;;;;;;;10.55;6.28;;;;;;;16.17;56.89;99551.16;4973032;28;20053;-80
2023/07/22 02:06:15;;;;;;;10.35;6.75;;;;;;;16.15;57.28;99552.16;4990269;28;20089;-80
2023/07/22 02:08:41;;;;;;;10.27;6.60;;;;;;;16.14;57.40;99557.59;4991067;28;20428;-80
2023/07/22 02:11:08;;;;;;;12.43;7.38;;;;;;;16.12;57.26;99551.56;4990092;28;20477;-80
2023/07/22 02:13:35;;;;;;;11.90;6.82;;;;;;;16.11;57.36;99549.91;4991266;28;20054;-80
2023/07/22 02:16:03;;;;;;;13.77;6.70;;;;;;;16.08;57.46;99547.50;4989726;28;20058;-80
2023/07/22 02:18:29;;;;;;;10.77;6.85;;;;;;;16.10;57.38;99550.84;4991261;28;20117;-80
2023/07/22 02:20:56;;;;;;;10.90;6.82;;;;;;;16.08;57.84;99553.66;4991320;28;20053;-80
2023/07/22 02:23:24;;;;;;;17.05;6.93;;;;;;;16.09;57.45;99546.50;4989959;28;20092;-80
2023/07/22 02:25:51;;;;;;;10.93;7.22;;;;;;;16.08;57.52;99548.34;4990976;28;20065;-80
2023/07/22 02:28:23;;;;;;;10.05;6.95;;;;;;;16.07;57.67;99549.28;4990982;28;20058;-80
2023/07/22 02:30:53;;;;;;;12.60;7.25;;;;;;;16.05;58.10;99550.38;4988109;28;20074;-80
2023/07/22 02:33:24;;;;;;;8.27;6.28;;;;;;;16.03;57.67;99545.22;4972975;28;20111;-80
2023/07/22 02:35:50;;;;;;;10.30;6.20;;;;;;;16.02;57.55;99547.03;4980162;28;20245;-80
2023/07/22 02:38:17;;;;;;;11.63;6.63;;;;;;;16.00;57.82;99543.66;4990273;28;20057;-80
2023/07/22 02:40:44;;;;;;;9.90;6.90;;;;;;;15.97;57.58;99543.06;4989653;28;20053;-80
2023/07/22 02:43:10;;;;;;;14.68;6.70;;;;;;;15.95;57.78;99543.19;4991285;28;20073;-80
2023/07/22 02:45:37;;;;;;;12.10;7.13;;;;;;;15.95;57.94;99548.50;4990636;28;20050;-80
2023/07/22 02:48:04;;;;;;;12.75;7.18;;;;;;;15.93;57.95;99549.56;4990528;28;20580;-80
2023/07/22 02:50:31;;;;;;;9.90;6.97;;;;;;;15.93;58.04;99555.75;4990872;28;20112;-80
2023/07/22 02:52:57;;;;;;;12.18;7.50;;;;;;;15.92;58.15;99548.72;4990714;28;20128;-80
2023/07/22 02:55:24;;;;;;;10.63;7.38;;;;;;;15.91;58.20;99555.00;4990259;28;20450;-80
2023/07/22 02:57:50;;;;;;;13.68;7.00;;;;;;;15.90;58.18;99548.03;4990524;28;20504;-80
2023/07/22 03:00:24;;;;;;;14.70;7.72;;;;;;;15.90;58.42;99545.38;4990341;28;20062;-80
2023/07/22 03:03:00;;;;;;;10.32;7.18;;;;;;;15.88;59.05;99549.94;4990715;28;20050;-80
2023/07/22 03:05:29;;;;;;;14.95;7.22;;;;;;;15.90;58.38;99553.34;4990394;28;20065;-80
2023/07/22 03:07:56;;;;;;;12.07;7.60;;;;;;;15.88;58.27;99553.47;4990332;28;20104;-81
2023/07/22 03:10:23;;;;;;;10.52;7.95;;;;;;;15.89;58.49;99556.97;5025205;22;20089;-79
2023/07/22 03:12:54;;;;;;;10.48;7.60;;;;;;;15.88;58.42;99555.25;4990776;28;20069;-80
2023/07/22 03:15:25;;;;;;;10.82;7.38;;;;;;;15.86;59.00;99554.56;4989873;28;20042;-79
2023/07/22 03:17:55;;;;;;;12.30;8.10;;;;;;;15.87;58.61;99553.56;4991082;28;20062;-80
2023/07/22 03:20:24;;;;;;;11.32;7.65;;;;;;;15.88;58.56;99553.47;4990748;28;20415;-79
2023/07/22 03:22:51;;;;;;;13.25;8.38;;;;;;;15.88;58.65;99552.59;4991015;28;20540;-79
2023/07/22 03:25:20;;;;;;;12.13;8.93;;;;;;;15.87;58.73;99550.94;4990999;28;20046;-79
2023/07/22 03:27:46;;;;;;;15.85;8.35;;;;;;;15.87;58.83;99545.63;4991039;28;20094;-79
2023/07/22 03:30:15;;;;;;;14.65;8.57;;;;;;;15.88;59.05;99552.59;4989656;28;20113;-79
2023/07/22 03:32:44;;;;;;;15.50;8.43;;;;;;;15.88;59.13;99553.47;4990639;28;20053;-79
2023/07/22 03:35:11;;;;;;;12.63;7.95;;;;;;;15.88;58.96;99552.59;4990843;28;20105;-79
2023/07/22 03:37:39;;;;;;;13.40;8.45;;;;;;;15.89;59.13;99565.75;4990686;28;20057;-79
2023/07/22 03:40:29;;;;;;;16.30;8.52;;;;;;;15.90;59.23;99563.94;4990605;28;20450;-79
2023/07/22 03:42:56;;;;;;;12.05;7.85;;;;;;;15.90;59.06;99562.13;4990830;28;20042;-79
2023/07/22 03:45:22;;;;;;;12.60;8.25;;;;;;;15.93;58.92;99561.06;4990825;28;20050;-79
2023/07/22 03:47:58;;;;;;;16.50;8.60;;;;;;;15.91;59.87;99568.28;4990601;28;20054;-79
2023/07/22 03:50:25;;;;;;;13.55;8.48;;;;;;;15.95;59.24;99564.44;4990781;28;20085;-79
2023/07/22 03:52:51;;;;;;;14.98;8.02;;;;;;;15.96;59.07;99571.44;4989630;28;20050;-79
2023/07/22 03:55:19;;;;;;;13.68;8.55;;;;;;;15.96;59.32;99571.44;4990723;28;20058;-80
2023/07/22 03:57:46;;;;;;;15.55;7.95;;;;;;;15.97;59.19;99573.13;4990571;28;20054;-80
2023/07/22 04:00:13;;;;;;;14.00;8.25;;;;;;;15.98;59.20;99572.16;4990810;28;20109;-79
2023/07/22 04:02:40;;;;;;;13.32;8.45;;;;;;;16.00;59.35;99572.84;4990505;28;20058;-79
2023/07/22 04:05:07;;;;;;;11.52;8.52;;;;;;;16.00;59.28;99569.38;4989257;28;20495;-79
2023/07/22 04:07:34;;;;;;;12.77;8.80;;;;;;;16.02;59.22;99572.72;4990719;28;20054;-79
2023/07/22 04:10:01;;;;;;;14.30;8.45;;;;;;;16.02;59.33;99570.94;4990343;28;20475;-79
2023/07/22 04:12:28;;;;;;;16.65;9.32;;;;;;;16.04;59.47;99568.16;4990413;28;20047;-80
2023/07/22 04:14:55;;;;;;;11.70;8.20;;;;;;;16.06;59.42;99560.03;4990348;28;20050;-80
2023/07/22 04:17:22;;;;;;;14.40;9.35;;;;;;;16.07;59.52;99561.75;4993474;28;20057;-79
2023/07/22 04:19:51;;;;;;;11.57;8.27;;;;;;;16.08;59.67;99563.41;4994238;28;20089;-80
2023/07/22 04:22:19;;;;;;;13.27;8.60;;;;;;;16.12;59.15;99570.16;4992776;28;20085;-80
2023/07/22 04:24:48;;;;;;;14.07;8.18;;;;;;;16.13;59.52;99564.72;4994200;28;20051;-79
2023/07/22 04:27:16;;;;;;;13.40;8.50;;;;;;;16.16;59.50;99568.94;4993830;28;20553;-80
2023/07/22 04:29:42;;;;;;;13.20;8.35;;;;;;;16.17;59.29;99573.25;4993989;28;20050;-79
2023/07/22 04:32:09;;;;;;;11.35;8.15;;;;;;;16.18;59.25;99566.97;4990437;28;20046;-79
2023/07/22 04:34:36;;;;;;;14.90;8.20;;;;;;;16.20;59.39;99566.84;4993614;28;20052;-79
2023/07/22 04:37:03;;;;;;;15.10;9.57;;;;;;;16.21;59.46;99572.03;4993514;28;20050;-79
2023/07/22 04:39:29;;;;;;;15.32;8.93;;;;;;;16.22;59.38;99562.28;4992683;28;20154;-79
2023/07/22 04:41:56;;;;;;;13.02;8.52;;;;;;;16.24;59.41;99568.28;4993356;28;20050;-80
2023/07/22 04:44:23;;;;;;;13.45;8.57;;;;;;;16.24;59.54;99569.13;4992699;28;20081;-79
2023/07/22 04:46:50;;;;;;;13.73;9.20;;;;;;;16.26;59.65;99575.16;4993330;28;20046;-79
2023/07/22 04:49:17;;;;;;;12.18;8.73;;;;;;;16.30;59.56;99574.91;4992627;28;20051;-79
2023/07/22 04:51:48;;;;;;;14.90;9.07;;;;;;;16.31;59.99;99579.22;4993399;28;20046;-79
2023/07/22 04:54:15;;;;;;;12.60;9.25;;;;;;;16.34;59.50;99579.81;4992386;28;20100;-79
2023/07/22 04:56:42;;;;;;;12.52;8.32;;;;;;;16.35;59.26;99575.34;4991976;28;20061;-79
2023/07/22 04:59:09;;;;;;;14.55;9.07;;;;;;;16.35;59.24;99578.84;4992441;28;20050;-79
2023/07/22 05:01:37;;;;;;;11.93;8.38;;;;;;;16.36;59.42;99577.88;4979676;28;20051;-79
2023/07/22 05:04:04;;;;;;;12.10;8.32;;;;;;;16.37;59.16;99584.03;4986417;28;20050;-80
2023/07/22 05:06:31;;;;;;;13.82;8.60;;;;;;;16.37;59.42;99581.38;4993080;28;20057;-79
2023/07/22 05:08:58;;;;;;;12.75;9.02;;;;;;;16.38;59.44;99585.72;4993075;28;20053;-79
2023/07/22 05:11:25;;;;;;;13.38;8.98;;;;;;;16.39;59.46;99582.09;4993121;28;20061;-79
2023/07/22 05:13:52;;;;;;;14.40;9.25;;;;;;;16.39;59.31;99572.31;4991930;28;20059;-80
2023/07/22 05:16:18;;;;;;;13.63;8.32;;;;;;;16.39;59.59;99579.44;4993171;28;20054;-79
2023/07/22 05:18:45;;;;;;;12.50;9.30;;;;;;;16.40;59.67;99581.97;4992895;28;20054;-79
2023/07/22 05:21:12;;;;;;;12.57;8.65;;;;;;;16.41;59.84;99577.50;4993228;28;20141;-79
2023/07/22 05:23:38;;;;;;;14.25;9.25;;;;;;;16.41;59.78;99580.16;4992990;28;20057;-79
2023/07/22 05:26:05;;;;;;;12.00;9.23;;;;;;;16.42;59.94;99584.50;4993126;28;20052;-80
2023/07/22 05:28:32;;;;;;;12.30;8.50;;;;;;;16.45;60.16;99586.03;4993030;28;20065;-79
2023/07/22 05:30:58;;;;;;;15.10;9.68;;;;;;;16.47;60.25;99587.59;4993028;28;20050;-80
2023/07/22 05:33:25;;;;;;;13.65;9.88;;;;;;;16.50;60.27;99594.47;4992933;28;20053;-80
2023/07/22 05:35:52;;;;;;;16.98;10.23;;;;;;;16.53;60.41;99594.22;4992225;28;20496;-79
2023/07/22 05:38:18;;;;;;;14.65;10.20;;;;;;;16.57;60.72;99594.78;4991392;28;20077;-79
2023/07/22 05:40:45;;;;;;;17.55;9.63;;;;;;;16.61;60.26;99598.84;4992620;28;20054;-80
2023/07/22 05:43:12;;;;;;;16.02;9.50;;;;;;;16.63;60.59;99595.09;4992821;28;20084;-79
2023/07/22 05:45:38;;;;;;;14.52;10.27;;;;;;;16.66;60.31;99597.50;4992014;28;20054;-78
2023/07/22 05:48:05;;;;;;;12.55;9.70;;;;;;;16.70;60.47;99597.25;4990976;28;20053;-78
2023/07/22 05:50:32;;;;;;;15.82;10.45;;;;;;;16.71;60.41;99597.09;4992303;28;20086;-78
2023/07/22 05:52:59;;;;;;;14.98;9.68;;;;;;;16.77;60.52;99598.38;4992357;28;20138;-78
2023/07/22 05:55:26;;;;;;;15.55;10.25;;;;;;;16.79;60.56;99591.97;4992014;28;20487;-82
2023/07/22 05:57:53;;;;;;;16.98;10.40;;;;;;;16.85;60.48;99587.13;4991855;28;20050;-81
2023/07/22 06:00:20;;;;;;;15.40;9.73;;;;;;;16.87;60.50;99586.00;4991504;28;20137;-80
2023/07/22 06:02:48;;;;;;;16.20;10.93;;;;;;;16.91;60.50;99586.56;4992144;28;20050;-81
2023/07/22 06:05:15;;;;;;;16.23;10.82;;;;;;;16.93;60.33;99592.59;4991778;28;20054;-81
2023/07/22 06:07:42;;;;;;;15.52;9.68;;;;;;;16.96;60.39;99589.66;4991666;28;20082;-81
2023/07/22 06:10:10;;;;;;;15.95;10.32;;;;;;;16.98;60.62;99595.72;4992330;28;20060;-81
2023/07/22 06:12:36;;;;;;;15.32;11.10;;;;;;;17.02;60.88;99597.13;4991397;28;20042;-81
2023/07/22 06:15:04;;;;;;;13.32;9.35;;;;;;;17.07;61.23;99596.75;4991532;28;20056;-81
2023/07/22 06:17:31;;;;;;;19.80;11.60;;;;;;;17.15;61.60;99593.41;4991807;28;20054;-81
2023/07/22 06:19:57;;;;;;;15.93;10.60;;;;;;;17.25;61.50;99601.41;4990596;28;20046;-82
2023/07/22 06:22:24;;;;;;;18.15;10.82;;;;;;;17.36;61.61;99600.47;4991844;28;20510;-81
2023/07/22 06:24:50;;;;;;;18.40;11.32;;;;;;;17.47;61.63;99597.72;4991700;28;20050;-81
2023/07/22 06:27:17;;;;;;;16.85;11.60;;;;;;;17.58;61.72;99600.25;4991541;28;20166;-81
2023/07/22 06:29:44;;;;;;;15.32;11.60;;;;;;;17.69;60.96;99601.94;4991703;28;20073;-81
2023/07/22 06:32:11;;;;;;;16.77;12.27;;;;;;;17.79;60.72;99599.31;4991715;28;20137;-81
2023/07/22 06:34:37;;;;;;;14.35;11.15;;;;;;;17.87;60.44;99605.75;4991440;28;20054;-81
2023/07/22 06:37:04;;;;;;;19.08;12.30;;;;;;;17.92;60.23;99604.38;4989746;28;20053;-78
2023/07/22 06:39:31;;;;;;;18.40;12.50;;;;;;;17.97;60.03;99603.94;4991123;28;20137;-80
2023/07/22 06:41:58;;;;;;;15.85;12.32;;;;;;;18.00;59.89;99602.81;4991492;28;20046;-81
2023/07/22 06:44:24;;;;;;;15.40;11.85;;;;;;;18.03;60.47;99597.22;4991478;28;20046;-81
2023/07/22 06:46:51;;;;;;;16.90;11.57;;;;;;;18.06;60.21;99600.44;4990992;28;20050;-81
2023/07/22 06:49:17;;;;;;;18.33;11.57;;;;;;;18.10;59.96;99593.88;4989952;28;20073;-82
2023/07/22 06:51:44;;;;;;;16.33;11.90;;;;;;;18.13;60.00;99594.59;4991548;28;20069;-81
2023/07/22 06:54:11;;;;;;;17.00;12.13;;;;;;;18.17;60.09;99594.16;4990946;28;20093;-81
2023/07/22 06:56:37;;;;;;;20.63;12.90;;;;;;;18.21;60.13;99600.06;4990291;28;20050;-81
2023/07/22 06:59:04;;;;;;;20.35;12.75;;;;;;;18.26;59.91;99596.94;4990885;28;20054;-81
2023/07/22 07:01:30;;;;;;;21.63;13.45;;;;;;;18.28;60.20;99593.16;4990837;28;20046;-81
2023/07/22 07:03:57;;;;;;;19.77;13.20;;;;;;;18.31;60.24;99590.22;4990874;28;20065;-82
2023/07/22 07:06:24;;;;;;;18.75;12.77;;;;;;;18.35;60.04;99588.97;4990724;28;20770;-81
2023/07/22 07:08:52;;;;;;;19.85;13.70;;;;;;;18.40;59.93;99588.53;4990719;28;20431;-82
2023/07/22 07:11:18;;;;;;;20.33;13.55;;;;;;;18.47;60.28;99596.81;4991303;28;20057;-81
2023/07/22 07:13:45;;;;;;;20.33;13.80;;;;;;;18.53;60.02;99592.69;4990987;28;20759;-81
2023/07/22 07:16:25;;;;;;;19.42;12.07;;;;;;;18.57;60.40;99594.94;4990873;28;20101;-82
2023/07/22 07:18:54;;;;;;;19.35;13.30;;;;;;;18.67;60.46;99594.09;4990912;28;20046;-81
2023/07/22 07:21:21;;;;;;;17.35;12.73;;;;;;;18.74;60.29;99587.19;4990588;28;20047;-82
2023/07/22 07:23:48;;;;;;;18.70;13.57;;;;;;;18.80;59.89;99594.59;4989619;28;20054;-81
2023/07/22 07:26:15;;;;;;;16.98;12.73;;;;;;;18.86;59.73;99590.53;4990889;28;20046;-82
2023/07/22 07:28:43;;;;;;;20.60;12.90;;;;;;;18.89;59.88;99587.56;4990733;28;20061;-82
2023/07/22 07:31:10;;;;;;;21.35;13.25;;;;;;;18.94;59.84;99595.97;4991022;28;20058;-81
2023/07/22 07:33:36;;;;;;;18.10;13.00;;;;;;;18.98;59.90;99593.84;4990765;28;20081;-81
2023/07/22 07:36:03;;;;;;;22.30;13.32;;;;;;;19.01;59.67;99598.88;4990905;28;20066;-82
2023/07/22 07:38:30;;;;;;;22.52;13.75;;;;;;;19.04;59.60;99597.75;4990825;28;20084;-81
2023/07/22 07:41:00;;;;;;;21.30;13.95;;;;;;;19.06;59.97;99603.84;4990628;28;20050;-82
2023/07/22 07:43:26;;;;;;;23.50;14.57;;;;;;;19.12;59.72;99603.22;4991076;28;20051;-82
2023/07/22 07:46:22;;;;;;;18.50;13.40;;;;;;;19.13;60.02;99594.22;4990810;28;20050;-82
2023/07/22 07:48:52;;;;;;;17.73;12.93;;;;;;;19.22;59.86;99598.69;4989416;28;20534;-82
2023/07/22 07:51:20;;;;;;;20.40;14.63;;;;;;;19.28;59.65;99594.59;4991934;28;20093;-82
2023/07/22 07:53:48;;;;;;;23.83;13.57;;;;;;;19.33;60.03;99592.31;4994494;28;20133;-82
2023/07/22 07:56:16;;;;;;;24.15;15.02;;;;;;;19.40;60.34;99596.06;4994226;28;20423;-82
2023/07/22 07:58:44;;;;;;;20.48;13.98;;;;;;;19.49;60.20;99602.34;4994579;28;20046;-82
2023/07/22 08:01:11;;;;;;;23.20;15.25;;;;;;;19.57;59.84;99601.59;4994256;28;20050;-82
2023/07/22 08:03:41;;;;;;;21.88;14.98;;;;;;;19.63;59.66;99590.28;4994420;28;20491;-82
2023/07/22 08:06:09;;;;;;;22.45;14.45;;;;;;;19.71;59.65;99594.91;4994069;28;20566;-83
2023/07/22 08:08:37;;;;;;;19.38;13.75;;;;;;;19.81;59.51;99594.81;4993158;28;20058;-82
2023/07/22 08:11:07;;;;;;;20.23;14.10;;;;;;;19.92;59.71;99591.06;4994421;28;20054;-82
2023/07/22 08:13:35;;;;;;;17.90;13.80;;;;;;;20.03;59.83;99595.38;4994437;28;20108;-82
2023/07/22 08:16:04;;;;;;;16.83;13.35;;;;;;;20.16;59.31;99587.00;4994110;28;20054;-82
2023/07/22 08:18:32;;;;;;;20.77;12.00;;;;;;;20.27;59.01;99591.25;4993866;28;20058;-82
2023/07/22 08:20:59;;;;;;;16.73;13.02;;;;;;;20.38;59.22;99592.84;4994134;28;20479;-82
2023/07/22 08:23:26;;;;;;;14.80;11.77;;;;;;;20.49;58.60;99581.06;4993992;28;20050;-82
2023/07/22 08:25:52;;;;;;;17.08;11.45;;;;;;;20.60;58.49;99593.31;4994080;28;20050;-82
2023/07/22 08:28:19;;;;;;;19.02;11.80;;;;;;;20.69;57.90;99585.19;4991747;28;20058;-82
2023/07/22 08:30:48;;;;;;;17.02;11.50;;;;;;;20.77;57.74;99591.56;4992257;28;20050;-83
2023/07/22 08:33:16;;;;;;;13.75;9.73;;;;;;;20.86;56.88;99601.31;4991594;28;20049;-82
2023/07/22 08:35:56;;;;;;;15.00;10.55;;;;;;;20.95;56.78;99596.91;4993303;28;20491;-82
2023/07/22 08:38:23;;;;;;;14.02;10.65;;;;;;;20.99;57.12;99595.59;4993545;28;20073;-83
2023/07/22 08:40:53;;;;;;;12.80;9.75;;;;;;;21.07;56.42;99600.13;4993433;28;20109;-83
2023/07/22 08:43:22;;;;;;;41.88;24.35;;;;;;;21.12;56.54;99603.16;4993301;28;20078;-83
2023/07/22 08:45:52;;;;;;;20.52;13.57;;;;;;;21.19;56.07;99596.16;4988369;28;20047;-83
2023/07/22 08:48:21;;;;;;;15.27;11.05;;;;;;;21.27;56.65;99598.03;4993569;28;20062;-82
2023/07/22 08:51:04;;;;;;;12.48;9.85;;;;;;;21.34;55.60;99600.91;4993467;28;20058;-83
2023/07/22 08:53:33;;;;;;;31.02;14.75;;;;;;;21.48;55.74;99594.94;4993076;28;20046;-83
2023/07/22 08:56:00;;;;;;;26.27;15.15;;;;;;;21.57;55.27;99608.34;4992974;28;20486;-83
2023/07/22 08:58:29;;;;;;;20.60;11.80;;;;;;;21.64;55.55;99620.06;4993015;28;20054;-83
2023/07/22 09:00:56;;;;;;;13.10;8.43;;;;;;;21.72;55.54;99605.88;4993231;28;20422;-83
2023/07/22 09:03:23;;;;;;;12.18;8.48;;;;;;;21.81;55.02;99604.91;4992642;28;20480;-83
2023/07/22 09:05:51;;;;;;;11.98;7.93;;;;;;;21.91;54.72;99609.28;4992979;28;20112;-82
2023/07/22 09:08:17;;;;;;;7.97;6.75;;;;;;;21.97;54.08;99612.13;4992840;28;20050;-81
2023/07/22 09:13:18;;;;;;;8.70;6.72;;;;;;;22.12;53.16;99606.97;5010929;28;20046;-80
2023/07/22 09:15:45;;;;;;;8.20;6.00;;;;;;;22.18;52.85;99604.59;5012611;28;20050;-81
2023/07/22 09:18:14;;;;;;;9.43;5.95;;;;;;;22.22;53.16;99600.59;5012746;28;20074;-82
2023/07/22 09:20:42;;;;;;;7.75;5.93;;;;;;;22.29;52.75;99606.13;5012805;28;20096;-80
2023/07/22 09:23:09;;;;;;;6.50;5.28;;;;;;;22.32;52.11;99600.44;5012714;28;20041;-80
2023/07/22 09:25:41;;;;;;;8.55;6.63;;;;;;;22.35;52.03;99605.47;5012243;28;20125;-80
2023/07/22 09:28:08;;;;;;;8.63;5.80;;;;;;;22.35;51.18;99598.22;5012538;28;20050;-80
2023/07/22 09:30:38;;;;;;;6.80;5.38;;;;;;;22.34;51.46;99593.88;5012532;28;20049;-80
2023/07/22 09:33:07;;;;;;;9.48;5.85;;;;;;;22.34;51.12;99599.25;5011246;28;20042;-80
2023/07/22 09:35:46;;;;;;;6.70;5.38;;;;;;;22.31;51.14;99588.03;5012042;28;20475;-80
2023/07/22 09:38:15;;;;;;;7.82;6.07;;;;;;;22.36;51.02;99585.69;5012119;28;20037;-80
2023/07/22 09:40:41;;;;;;;7.57;5.70;;;;;;;22.36;51.24;99581.13;5012522;28;20049;-80
2023/07/22 09:43:14;;;;;;;6.57;5.28;;;;;;;22.38;50.94;99586.34;5012353;28;20046;-80
2023/07/22 09:45:41;;;;;;;8.35;5.55;;;;;;;22.46;51.27;99580.97;5011687;28;20046;-79
2023/07/22 09:48:09;;;;;;;7.28;4.82;;;;;;;22.56;51.50;99577.28;5011969;28;20050;-80
2023/07/22 09:50:36;;;;;;;9.10;4.90;;;;;;;22.67;50.33;99574.25;5012064;28;20065;-81
2023/07/22 09:53:03;;;;;;;7.07;4.35;;;;;;;22.82;50.03;99568.16;5012225;28;20065;-81
2023/07/22 09:55:32;;;;;;;5.07;4.22;;;;;;;22.91;50.02;99576.03;5011639;28;20089;-81
2023/07/22 09:58:05;;;;;;;6.03;3.90;;;;;;;23.02;48.42;99566.75;5010772;28;20097;-81
2023/07/22 10:00:34;;;;;;;6.70;5.07;;;;;;;23.13;48.65;99568.22;5010659;28;20049;-81
2023/07/22 10:03:06;;;;;;;9.35;4.95;;;;;;;23.21;49.12;99570.03;5010581;28;20563;-81
2023/07/22 10:05:38;;;;;;;7.05;5.50;;;;;;;23.26;49.03;99558.78;5011562;28;20095;-81
2023/07/22 10:08:06;;;;;;;5.40;4.55;;;;;;;23.35;48.89;99573.84;5011197;28;20042;-81
2023/07/22 10:10:43;;;;;;;8.50;5.28;;;;;;;23.43;48.67;99565.75;5011789;28;20049;-81
2023/07/22 10:13:10;;;;;;;8.55;5.47;;;;;;;23.53;48.44;99560.16;5011487;28;20205;-81
2023/07/22 10:15:38;;;;;;;6.22;5.18;;;;;;;23.61;48.25;99561.13;5009583;28;20050;-81
2023/07/22 10:18:05;;;;;;;8.00;5.43;;;;;;;23.68;47.99;99562.06;5011811;28;20038;-81
2023/07/22 10:20:36;;;;;;;6.38;5.10;;;;;;;23.76;48.35;99567.41;5011831;28;20099;-82
2023/07/22 10:23:03;;;;;;;7.13;5.05;;;;;;;23.84;47.75;99555.75;5011732;28;20046;-81
2023/07/22 10:25:30;;;;;;;8.45;5.47;;;;;;;23.92;47.34;99554.88;5011170;28;20125;-80
2023/07/22 10:27:57;;;;;;;5.90;5.10;;;;;;;24.00;47.21;99562.03;5011373;28;20046;-81
2023/07/22 10:30:23;;;;;;;9.63;5.80;;;;;;;24.05;47.12;99551.56;5011346;28;20096;-81
2023/07/22 10:32:53;;;;;;;9.18;5.85;;;;;;;24.07;45.80;99561.09;5009990;28;20104;-80
2023/07/22 10:35:32;;;;;;;9.30;6.72;;;;;;;24.04;46.08;99558.78;5011258;28;20067;-82
2023/07/22 10:38:11;;;;;;;7.97;5.70;;;;;;;24.02;45.80;99546.53;5011238;28;20042;-80
2023/07/22 10:40:50;;;;;;;7.05;5.53;;;;;;;23.98;45.66;99550.59;5010123;28;20112;-80
2023/07/22 10:43:17;;;;;;;9.13;6.05;;;;;;;23.97;46.18;99551.63;5010196;28;20045;-81
2023/07/22 10:45:51;;;;;;;7.07;5.65;;;;;;;23.90;46.38;99549.66;5009916;28;20049;-78
2023/07/22 10:48:18;;;;;;;7.55;5.72;;;;;;;23.89;46.35;99553.34;5011283;28;20121;-78
2023/07/22 10:50:48;;;;;;;7.95;5.82;;;;;;;23.81;45.97;99556.13;5011234;28;20573;-78
2023/07/22 10:53:24;;;;;;;10.35;6.70;;;;;;;23.68;46.73;99571.00;5010984;28;20129;-78
2023/07/22 10:56:07;;;;;;;9.60;7.13;;;;;;;23.53;47.12;99570.91;5009697;28;20045;-78
2023/07/22 10:58:46;;;;;;;11.68;7.28;;;;;;;23.33;47.78;99564.28;5010739;28;20050;-78
2023/07/22 11:01:28;;;;;;;9.82;7.30;;;;;;;23.11;47.51;99558.69;5009880;28;20077;-79
2023/07/22 11:04:05;;;;;;;;;;;;;;;22.95;48.21;99555.03;5011476;28;20054;-78
2023/07/22 11:06:32;;;;;;;12.65;7.22;;;;;;;22.84;48.51;99556.25;5011045;28;20361;-78
2023/07/22 11:08:59;;;;;;;15.00;8.40;;;;;;;22.67;49.10;99550.09;5010890;28;20042;-79
2023/07/22 11:11:44;;;;;;;8.77;7.15;;;;;;;22.50;50.39;99549.28;5010931;28;20152;-79
2023/07/22 11:14:20;;;;;;;8.98;7.63;;;;;;;22.45;50.67;99549.78;5011139;28;20053;-79
2023/07/22 11:16:47;;;;;;;11.90;8.13;;;;;;;22.41;50.60;99545.78;5010814;28;20042;-78
2023/07/22 11:19:16;;;;;;;8.88;7.40;;;;;;;22.38;50.53;99546.97;5010718;28;20045;-77
2023/07/22 11:21:46;;;;;;;11.77;7.70;;;;;;;22.37;51.05;99544.44;5010970;28;20049;-79
2023/07/22 11:24:13;;;;;;;10.27;7.53;;;;;;;22.40;51.48;99544.09;5009662;28;20076;-78
2023/07/22 11:26:40;;;;;;;12.45;7.85;;;;;;;22.45;51.88;99532.84;5014430;28;20041;-78
2023/07/22 11:29:09;;;;;;;12.30;7.40;;;;;;;22.50;51.60;99539.38;5015103;28;20038;-79
2023/07/22 11:31:42;;;;;;;11.13;7.28;;;;;;;22.54;51.57;99531.00;5014282;28;20042;-79
2023/07/22 11:34:09;;;;;;;;;;;;;;;22.57;51.57;99538.75;5015083;28;20088;-79